Main page
METAR-TAF:

METAR-TAF

Airports :

Pontoise, France

Pontoise – Cormeilles Aerodrome

latitude: 49-05-48N, longitude: 002-02-27E, elevation: 99 m

Current weather observation

The report was made 22 minutes ago, at 04:30 UTC
Wind 14 kt from the West/Southwest
Temperature 10°C
Humidity 76%
Pressure 1015 hPa
Visibility 10 km or more
no clouds below 1500 m and no cumulonimbus

METAR: LFPT 220430Z AUTO 24014KT CAVOK 10/06 Q1015

Time: 06:52 (04:52 UTC)


TAF: missing

Weather observations and forecasts of more than 4000 airports (METAR and TAF reports).

The available stations are represented by yellow and red dots on the map.

Hover mouse over dot to see the name of the station.

Then click to see weather observations and forecasts.

To change the map : click on the green buttons with a black cross to zoom in, on the green button with a dash to zoom out, or on the green arrows for adjacent maps.


METAR-TAF: